sensor_id;sensor_type;location;lat;lon;timestamp;P1;durP1;ratioP1;P2;durP2;ratioP2
6850;SDS011;3464;42.728;23.296;2023-07-16T00:02:03;21.53;;;9.60;;
6850;SDS011;3464;42.728;23.296;2023-07-16T00:04:30;20.80;;;10.60;;
6850;SDS011;3464;42.728;23.296;2023-07-16T00:06:56;19.10;;;9.70;;
6850;SDS011;3464;42.728;23.296;2023-07-16T00:09:23;20.90;;;10.90;;
6850;SDS011;3464;42.728;23.296;2023-07-16T00:11:49;18.67;;;10.00;;
6850;SDS011;3464;42.728;23.296;2023-07-16T00:14:17;17.70;;;8.90;;
6850;SDS011;3464;42.728;23.296;2023-07-16T00:16:42;19.87;;;10.20;;
6850;SDS011;3464;42.728;23.296;2023-07-16T00:19:10;19.87;;;9.67;;
6850;SDS011;3464;42.728;23.296;2023-07-16T00:21:37;19.33;;;9.80;;
6850;SDS011;3464;42.728;23.296;2023-07-16T00:24:04;17.83;;;9.83;;
6850;SDS011;3464;42.728;23.296;2023-07-16T00:26:30;20.60;;;8.10;;
6850;SDS011;3464;42.728;23.296;2023-07-16T00:28:57;17.10;;;8.67;;
6850;SDS011;3464;42.728;23.296;2023-07-16T00:31:23;19.10;;;8.73;;
6850;SDS011;3464;42.728;23.296;2023-07-16T00:33:50;18.97;;;8.00;;
6850;SDS011;3464;42.728;23.296;2023-07-16T00:36:17;17.00;;;7.80;;
6850;SDS011;3464;42.728;23.296;2023-07-16T00:38:44;18.63;;;7.50;;
6850;SDS011;3464;42.728;23.296;2023-07-16T00:41:10;17.43;;;8.00;;
6850;SDS011;3464;42.728;23.296;2023-07-16T00:43:37;18.47;;;8.10;;
6850;SDS011;3464;42.728;23.296;2023-07-16T00:46:03;15.30;;;7.77;;
6850;SDS011;3464;42.728;23.296;2023-07-16T00:48:30;13.23;;;7.33;;
6850;SDS011;3464;42.728;23.296;2023-07-16T00:50:56;18.87;;;7.70;;
6850;SDS011;3464;42.728;23.296;2023-07-16T00:53:23;13.57;;;7.20;;
6850;SDS011;3464;42.728;23.296;2023-07-16T00:55:49;17.50;;;8.17;;
6850;SDS011;3464;42.728;23.296;2023-07-16T00:58:16;14.60;;;7.47;;
6850;SDS011;3464;42.728;23.296;2023-07-16T01:00:42;20.83;;;7.47;;
6850;SDS011;3464;42.728;23.296;2023-07-16T01:03:11;18.00;;;7.30;;
6850;SDS011;3464;42.728;23.296;2023-07-16T01:05:43;15.47;;;6.97;;
6850;SDS011;3464;42.728;23.296;2023-07-16T01:08:26;23.30;;;8.33;;
6850;SDS011;3464;42.728;23.296;2023-07-16T01:10:48;18.97;;;7.30;;
6850;SDS011;3464;42.728;23.296;2023-07-16T01:13:15;15.60;;;7.10;;
6850;SDS011;3464;42.728;23.296;2023-07-16T01:15:42;15.17;;;6.83;;
6850;SDS011;3464;42.728;23.296;2023-07-16T01:18:09;18.50;;;6.90;;
6850;SDS011;3464;42.728;23.296;2023-07-16T01:20:35;16.67;;;7.10;;
6850;SDS011;3464;42.728;23.296;2023-07-16T01:23:09;18.17;;;7.47;;
6850;SDS011;3464;42.728;23.296;2023-07-16T01:25:44;16.03;;;7.03;;
6850;SDS011;3464;42.728;23.296;2023-07-16T01:28:27;17.07;;;6.90;;
6850;SDS011;3464;42.728;23.296;2023-07-16T01:30:53;15.70;;;7.50;;
6850;SDS011;3464;42.728;23.296;2023-07-16T01:33:20;13.90;;;6.97;;
6850;SDS011;3464;42.728;23.296;2023-07-16T01:35:46;18.37;;;6.80;;
6850;SDS011;3464;42.728;23.296;2023-07-16T01:38:13;15.17;;;6.90;;
6850;SDS011;3464;42.728;23.296;2023-07-16T01:40:39;14.30;;;6.70;;
6850;SDS011;3464;42.728;23.296;2023-07-16T01:43:06;20.70;;;6.60;;
6850;SDS011;3464;42.728;23.296;2023-07-16T01:45:32;20.90;;;6.43;;
6850;SDS011;3464;42.728;23.296;2023-07-16T01:48:01;17.13;;;7.17;;
6850;SDS011;3464;42.728;23.296;2023-07-16T01:50:27;15.97;;;6.57;;
6850;SDS011;3464;42.728;23.296;2023-07-16T01:52:53;17.23;;;6.57;;
6850;SDS011;3464;42.728;23.296;2023-07-16T01:55:20;14.90;;;5.90;;
6850;SDS011;3464;42.728;23.296;2023-07-16T01:57:47;14.27;;;6.30;;
6850;SDS011;3464;42.728;23.296;2023-07-16T02:00:14;21.43;;;5.83;;
6850;SDS011;3464;42.728;23.296;2023-07-16T02:02:40;14.00;;;5.87;;
6850;SDS011;3464;42.728;23.296;2023-07-16T02:05:08;16.77;;;6.37;;
6850;SDS011;3464;42.728;23.296;2023-07-16T02:07:35;13.80;;;6.00;;
6850;SDS011;3464;42.728;23.296;2023-07-16T02:10:01;18.70;;;5.80;;
6850;SDS011;3464;42.728;23.296;2023-07-16T02:12:28;13.30;;;5.63;;
6850;SDS011;3464;42.728;23.296;2023-07-16T02:14:55;16.20;;;5.87;;
6850;SDS011;3464;42.728;23.296;2023-07-16T02:17:22;14.37;;;5.70;;
6850;SDS011;3464;42.728;23.296;2023-07-16T02:19:48;15.03;;;5.60;;
6850;SDS011;3464;42.728;23.296;2023-07-16T02:22:16;21.20;;;6.10;;
6850;SDS011;3464;42.728;23.296;2023-07-16T02:24:42;13.00;;;5.90;;
6850;SDS011;3464;42.728;23.296;2023-07-16T02:27:09;13.93;;;5.63;;
6850;SDS011;3464;42.728;23.296;2023-07-16T02:29:35;19.33;;;5.93;;
6850;SDS011;3464;42.728;23.296;2023-07-16T02:32:02;12.07;;;6.07;;
6850;SDS011;3464;42.728;23.296;2023-07-16T02:34:29;15.60;;;5.47;;
6850;SDS011;3464;42.728;23.296;2023-07-16T02:36:56;18.90;;;5.90;;
6850;SDS011;3464;42.728;23.296;2023-07-16T02:39:23;17.87;;;6.30;;
6850;SDS011;3464;42.728;23.296;2023-07-16T02:41:49;13.50;;;5.60;;
6850;SDS011;3464;42.728;23.296;2023-07-16T02:44:16;16.00;;;6.00;;
6850;SDS011;3464;42.728;23.296;2023-07-16T02:46:42;15.00;;;5.97;;
6850;SDS011;3464;42.728;23.296;2023-07-16T02:49:09;15.33;;;5.93;;
6850;SDS011;3464;42.728;23.296;2023-07-16T02:51:35;14.70;;;6.00;;
6850;SDS011;3464;42.728;23.296;2023-07-16T02:54:02;17.63;;;6.27;;
6850;SDS011;3464;42.728;23.296;2023-07-16T02:56:28;16.10;;;6.60;;
6850;SDS011;3464;42.728;23.296;2023-07-16T02:58:55;12.80;;;5.67;;
6850;SDS011;3464;42.728;23.296;2023-07-16T03:01:21;15.50;;;6.27;;
6850;SDS011;3464;42.728;23.296;2023-07-16T03:03:48;17.63;;;6.60;;
6850;SDS011;3464;42.728;23.296;2023-07-16T03:06:14;13.97;;;6.77;;
6850;SDS011;3464;42.728;23.296;2023-07-16T03:08:41;17.73;;;6.83;;
6850;SDS011;3464;42.728;23.296;2023-07-16T03:11:07;14.50;;;6.80;;
6850;SDS011;3464;42.728;23.296;2023-07-16T03:13:34;18.57;;;6.50;;
6850;SDS011;3464;42.728;23.296;2023-07-16T03:16:01;15.47;;;6.73;;
6850;SDS011;3464;42.728;23.296;2023-07-16T03:18:28;18.70;;;6.77;;
6850;SDS011;3464;42.728;23.296;2023-07-16T03:20:54;14.23;;;6.43;;
6850;SDS011;3464;42.728;23.296;2023-07-16T03:23:20;14.47;;;7.37;;
6850;SDS011;3464;42.728;23.296;2023-07-16T03:25:47;23.73;;;7.20;;
6850;SDS011;3464;42.728;23.296;2023-07-16T03:28:13;14.63;;;6.80;;
6850;SDS011;3464;42.728;23.296;2023-07-16T03:30:40;15.60;;;7.00;;
6850;SDS011;3464;42.728;23.296;2023-07-16T03:33:07;15.33;;;7.10;;
6850;SDS011;3464;42.728;23.296;2023-07-16T03:35:33;16.23;;;7.70;;
6850;SDS011;3464;42.728;23.296;2023-07-16T03:38:00;22.07;;;8.67;;
6850;SDS011;3464;42.728;23.296;2023-07-16T03:40:26;17.07;;;7.90;;
6850;SDS011;3464;42.728;23.296;2023-07-16T03:42:53;17.30;;;7.70;;
6850;SDS011;3464;42.728;23.296;2023-07-16T03:45:20;17.80;;;7.23;;
6850;SDS011;3464;42.728;23.296;2023-07-16T03:47:47;21.13;;;7.03;;
6850;SDS011;3464;42.728;23.296;2023-07-16T03:50:13;19.90;;;6.43;;
6850;SDS011;3464;42.728;23.296;2023-07-16T03:52:40;18.40;;;6.10;;
6850;SDS011;3464;42.728;23.296;2023-07-16T03:55:07;17.27;;;6.57;;
6850;SDS011;3464;42.728;23.296;2023-07-16T03:57:34;14.43;;;6.60;;
6850;SDS011;3464;42.728;23.296;2023-07-16T04:00:01;13.90;;;6.10;;
6850;SDS011;3464;42.728;23.296;2023-07-16T04:02:27;14.07;;;5.83;;
6850;SDS011;3464;42.728;23.296;2023-07-16T04:04:53;14.83;;;6.10;;
6850;SDS011;3464;42.728;23.296;2023-07-16T04:07:20;17.03;;;5.90;;
6850;SDS011;3464;42.728;23.296;2023-07-16T04:09:47;19.47;;;5.77;;
6850;SDS011;3464;42.728;23.296;2023-07-16T04:12:14;17.50;;;5.63;;
6850;SDS011;3464;42.728;23.296;2023-07-16T04:14:40;15.03;;;5.57;;
6850;SDS011;3464;42.728;23.296;2023-07-16T04:17:07;18.23;;;6.00;;
6850;SDS011;3464;42.728;23.296;2023-07-16T04:19:34;17.03;;;6.00;;
6850;SDS011;3464;42.728;23.296;2023-07-16T04:22:00;14.00;;;5.50;;
6850;SDS011;3464;42.728;23.296;2023-07-16T04:24:27;14.10;;;5.30;;
6850;SDS011;3464;42.728;23.296;2023-07-16T04:26:53;14.27;;;5.37;;
6850;SDS011;3464;42.728;23.296;2023-07-16T04:29:20;13.30;;;5.40;;
6850;SDS011;3464;42.728;23.296;2023-07-16T04:31:46;17.67;;;5.60;;
6850;SDS011;3464;42.728;23.296;2023-07-16T04:34:13;16.53;;;5.13;;
6850;SDS011;3464;42.728;23.296;2023-07-16T04:36:41;17.50;;;5.80;;
6850;SDS011;3464;42.728;23.296;2023-07-16T04:39:06;13.60;;;5.53;;
6850;SDS011;3464;42.728;23.296;2023-07-16T04:41:33;13.03;;;4.93;;
6850;SDS011;3464;42.728;23.296;2023-07-16T04:43:59;17.80;;;5.03;;
6850;SDS011;3464;42.728;23.296;2023-07-16T04:46:26;13.30;;;4.70;;
6850;SDS011;3464;42.728;23.296;2023-07-16T04:48:52;12.10;;;5.10;;
6850;SDS011;3464;42.728;23.296;2023-07-16T04:51:19;13.77;;;4.23;;
6850;SDS011;3464;42.728;23.296;2023-07-16T04:53:45;14.17;;;5.10;;
6850;SDS011;3464;42.728;23.296;2023-07-16T04:56:12;12.50;;;4.60;;
6850;SDS011;3464;42.728;23.296;2023-07-16T04:58:38;12.37;;;4.67;;
6850;SDS011;3464;42.728;23.296;2023-07-16T05:01:05;14.80;;;4.83;;
6850;SDS011;3464;42.728;23.296;2023-07-16T05:03:31;13.90;;;4.70;;
6850;SDS011;3464;42.728;23.296;2023-07-16T05:05:58;12.07;;;4.90;;
6850;SDS011;3464;42.728;23.296;2023-07-16T05:08:24;12.90;;;4.53;;
6850;SDS011;3464;42.728;23.296;2023-07-16T05:10:51;13.80;;;4.50;;
6850;SDS011;3464;42.728;23.296;2023-07-16T05:13:18;11.67;;;4.27;;
6850;SDS011;3464;42.728;23.296;2023-07-16T05:15:44;15.03;;;4.77;;
6850;SDS011;3464;42.728;23.296;2023-07-16T05:18:11;13.67;;;4.10;;
6850;SDS011;3464;42.728;23.296;2023-07-16T05:20:37;9.93;;;3.90;;
6850;SDS011;3464;42.728;23.296;2023-07-16T05:23:04;12.87;;;4.43;;
6850;SDS011;3464;42.728;23.296;2023-07-16T05:25:30;13.50;;;3.90;;
6850;SDS011;3464;42.728;23.296;2023-07-16T05:27:57;16.10;;;4.23;;
6850;SDS011;3464;42.728;23.296;2023-07-16T05:30:23;12.23;;;4.30;;
6850;SDS011;3464;42.728;23.296;2023-07-16T05:32:50;11.77;;;4.47;;
6850;SDS011;3464;42.728;23.296;2023-07-16T05:35:16;13.80;;;4.50;;
6850;SDS011;3464;42.728;23.296;2023-07-16T05:37:43;11.00;;;4.60;;
6850;SDS011;3464;42.728;23.296;2023-07-16T05:40:10;15.97;;;4.70;;
6850;SDS011;3464;42.728;23.296;2023-07-16T05:42:36;14.17;;;4.70;;
6850;SDS011;3464;42.728;23.296;2023-07-16T05:45:03;11.93;;;4.40;;
6850;SDS011;3464;42.728;23.296;2023-07-16T05:47:30;12.87;;;4.60;;
6850;SDS011;3464;42.728;23.296;2023-07-16T05:49:56;12.67;;;4.00;;
6850;SDS011;3464;42.728;23.296;2023-07-16T05:52:23;11.17;;;3.90;;
6850;SDS011;3464;42.728;23.296;2023-07-16T05:54:50;11.40;;;4.07;;
6850;SDS011;3464;42.728;23.296;2023-07-16T05:57:16;16.43;;;4.20;;
6850;SDS011;3464;42.728;23.296;2023-07-16T05:59:43;12.47;;;3.90;;
6850;SDS011;3464;42.728;23.296;2023-07-16T06:02:09;13.20;;;4.10;;
6850;SDS011;3464;42.728;23.296;2023-07-16T06:04:36;13.03;;;4.43;;
6850;SDS011;3464;42.728;23.296;2023-07-16T06:07:02;14.27;;;4.17;;
6850;SDS011;3464;42.728;23.296;2023-07-16T06:09:29;11.00;;;3.97;;
6850;SDS011;3464;42.728;23.296;2023-07-16T06:11:55;12.40;;;4.00;;
6850;SDS011;3464;42.728;23.296;2023-07-16T06:14:22;19.97;;;4.27;;
6850;SDS011;3464;42.728;23.296;2023-07-16T06:16:48;11.27;;;3.60;;
6850;SDS011;3464;42.728;23.296;2023-07-16T06:19:15;12.70;;;3.90;;
6850;SDS011;3464;42.728;23.296;2023-07-16T06:21:42;13.07;;;4.43;;
6850;SDS011;3464;42.728;23.296;2023-07-16T06:24:08;11.73;;;3.93;;
6850;SDS011;3464;42.728;23.296;2023-07-16T06:26:35;17.30;;;4.17;;
6850;SDS011;3464;42.728;23.296;2023-07-16T06:29:01;13.47;;;4.30;;
6850;SDS011;3464;42.728;23.296;2023-07-16T06:31:28;10.67;;;4.10;;
6850;SDS011;3464;42.728;23.296;2023-07-16T06:33:55;15.20;;;3.90;;
6850;SDS011;3464;42.728;23.296;2023-07-16T06:36:21;11.57;;;3.90;;
6850;SDS011;3464;42.728;23.296;2023-07-16T06:38:48;11.37;;;4.30;;
6850;SDS011;3464;42.728;23.296;2023-07-16T06:41:14;16.13;;;3.80;;
6850;SDS011;3464;42.728;23.296;2023-07-16T06:43:41;13.50;;;3.80;;
6850;SDS011;3464;42.728;23.296;2023-07-16T06:46:07;13.17;;;4.33;;
6850;SDS011;3464;42.728;23.296;2023-07-16T06:48:34;11.30;;;3.43;;
6850;SDS011;3464;42.728;23.296;2023-07-16T06:51:00;12.20;;;4.03;;
6850;SDS011;3464;42.728;23.296;2023-07-16T06:53:27;11.27;;;4.27;;
6850;SDS011;3464;42.728;23.296;2023-07-16T06:55:53;10.17;;;4.00;;
6850;SDS011;3464;42.728;23.296;2023-07-16T06:58:20;13.60;;;4.30;;
6850;SDS011;3464;42.728;23.296;2023-07-16T07:00:46;10.57;;;4.30;;
6850;SDS011;3464;42.728;23.296;2023-07-16T07:03:13;19.00;;;4.40;;
6850;SDS011;3464;42.728;23.296;2023-07-16T07:05:41;16.47;;;4.97;;
6850;SDS011;3464;42.728;23.296;2023-07-16T07:08:07;15.50;;;3.97;;
6850;SDS011;3464;42.728;23.296;2023-07-16T07:10:33;13.83;;;4.53;;
6850;SDS011;3464;42.728;23.296;2023-07-16T07:13:00;12.73;;;4.70;;
6850;SDS011;3464;42.728;23.296;2023-07-16T07:15:26;14.00;;;4.67;;
6850;SDS011;3464;42.728;23.296;2023-07-16T07:17:53;10.30;;;4.13;;
6850;SDS011;3464;42.728;23.296;2023-07-16T07:20:20;11.10;;;4.27;;
6850;SDS011;3464;42.728;23.296;2023-07-16T07:22:47;11.77;;;4.20;;
6850;SDS011;3464;42.728;23.296;2023-07-16T07:25:15;14.80;;;4.30;;
6850;SDS011;3464;42.728;23.296;2023-07-16T07:27:42;13.13;;;4.40;;
6850;SDS011;3464;42.728;23.296;2023-07-16T07:30:11;17.50;;;4.43;;
6850;SDS011;3464;42.728;23.296;2023-07-16T07:32:39;12.77;;;4.17;;
6850;SDS011;3464;42.728;23.296;2023-07-16T07:35:06;11.53;;;4.10;;
6850;SDS011;3464;42.728;23.296;2023-07-16T07:37:35;15.90;;;4.30;;
6850;SDS011;3464;42.728;23.296;2023-07-16T07:40:01;12.87;;;3.93;;
6850;SDS011;3464;42.728;23.296;2023-07-16T07:42:29;10.60;;;4.10;;
6850;SDS011;3464;42.728;23.296;2023-07-16T07:44:55;23.33;;;4.83;;
6850;SDS011;3464;42.728;23.296;2023-07-16T07:47:22;14.40;;;4.30;;
6850;SDS011;3464;42.728;23.296;2023-07-16T07:49:48;13.43;;;4.13;;
6850;SDS011;3464;42.728;23.296;2023-07-16T07:52:15;11.87;;;3.87;;
6850;SDS011;3464;42.728;23.296;2023-07-16T07:54:41;12.77;;;4.33;;
6850;SDS011;3464;42.728;23.296;2023-07-16T07:57:11;14.00;;;4.27;;
6850;SDS011;3464;42.728;23.296;2023-07-16T07:59:38;12.10;;;4.47;;
6850;SDS011;3464;42.728;23.296;2023-07-16T08:02:05;9.73;;;4.10;;
6850;SDS011;3464;42.728;23.296;2023-07-16T08:04:32;13.60;;;4.17;;
6850;SDS011;3464;42.728;23.296;2023-07-16T08:06:58;14.25;;;4.37;;
6850;SDS011;3464;42.728;23.296;2023-07-16T08:09:26;12.02;;;4.68;;
6850;SDS011;3464;42.728;23.296;2023-07-16T08:11:53;15.82;;;4.70;;
6850;SDS011;3464;42.728;23.296;2023-07-16T08:14:20;12.40;;;4.65;;
6850;SDS011;3464;42.728;23.296;2023-07-16T08:16:47;13.20;;;5.12;;
6850;SDS011;3464;42.728;23.296;2023-07-16T08:19:13;11.65;;;4.57;;
6850;SDS011;3464;42.728;23.296;2023-07-16T08:21:40;11.50;;;4.70;;
6850;SDS011;3464;42.728;23.296;2023-07-16T08:24:06;13.00;;;5.40;;
6850;SDS011;3464;42.728;23.296;2023-07-16T08:26:33;14.03;;;5.00;;
6850;SDS011;3464;42.728;23.296;2023-07-16T08:29:00;15.90;;;4.83;;
6850;SDS011;3464;42.728;23.296;2023-07-16T08:31:27;12.30;;;5.30;;
6850;SDS011;3464;42.728;23.296;2023-07-16T08:33:53;16.93;;;5.17;;
6850;SDS011;3464;42.728;23.296;2023-07-16T08:36:20;13.60;;;5.00;;
6850;SDS011;3464;42.728;23.296;2023-07-16T08:38:47;13.03;;;4.93;;
6850;SDS011;3464;42.728;23.296;2023-07-16T08:41:14;14.60;;;5.70;;
6850;SDS011;3464;42.728;23.296;2023-07-16T08:43:40;15.73;;;5.73;;
6850;SDS011;3464;42.728;23.296;2023-07-16T08:46:06;15.67;;;6.37;;
6850;SDS011;3464;42.728;23.296;2023-07-16T08:48:33;15.53;;;5.67;;
6850;SDS011;3464;42.728;23.296;2023-07-16T08:51:00;14.83;;;6.47;;
6850;SDS011;3464;42.728;23.296;2023-07-16T08:53:26;16.10;;;6.50;;
6850;SDS011;3464;42.728;23.296;2023-07-16T08:55:53;15.43;;;6.30;;
6850;SDS011;3464;42.728;23.296;2023-07-16T08:58:19;14.90;;;6.40;;
6850;SDS011;3464;42.728;23.296;2023-07-16T09:00:46;15.73;;;6.83;;
6850;SDS011;3464;42.728;23.296;2023-07-16T09:03:13;15.20;;;6.80;;
6850;SDS011;3464;42.728;23.296;2023-07-16T09:05:41;13.80;;;6.53;;
6850;SDS011;3464;42.728;23.296;2023-07-16T09:08:07;18.37;;;7.57;;
6850;SDS011;3464;42.728;23.296;2023-07-16T09:10:34;19.30;;;8.80;;
6850;SDS011;3464;42.728;23.296;2023-07-16T09:13:01;18.63;;;8.23;;
6850;SDS011;3464;42.728;23.296;2023-07-16T09:15:28;17.17;;;6.93;;
6850;SDS011;3464;42.728;23.296;2023-07-16T09:17:55;24.23;;;7.50;;
6850;SDS011;3464;42.728;23.296;2023-07-16T09:20:21;21.17;;;8.10;;
6850;SDS011;3464;42.728;23.296;2023-07-16T09:22:50;16.70;;;7.20;;
6850;SDS011;3464;42.728;23.296;2023-07-16T09:25:33;16.97;;;8.47;;
6850;SDS011;3464;42.728;23.296;2023-07-16T09:28:12;18.23;;;7.63;;
6850;SDS011;3464;42.728;23.296;2023-07-16T09:30:40;19.33;;;8.20;;
6850;SDS011;3464;42.728;23.296;2023-07-16T09:33:12;19.53;;;7.77;;
6850;SDS011;3464;42.728;23.296;2023-07-16T09:35:40;19.17;;;7.83;;
6850;SDS011;3464;42.728;23.296;2023-07-16T09:38:08;18.17;;;7.57;;
6850;SDS011;3464;42.728;23.296;2023-07-16T09:40:37;20.80;;;7.87;;
6850;SDS011;3464;42.728;23.296;2023-07-16T09:43:05;18.93;;;8.33;;
6850;SDS011;3464;42.728;23.296;2023-07-16T09:45:32;22.83;;;9.53;;
6850;SDS011;3464;42.728;23.296;2023-07-16T09:47:59;23.67;;;8.30;;
6850;SDS011;3464;42.728;23.296;2023-07-16T09:50:28;17.57;;;8.47;;
6850;SDS011;3464;42.728;23.296;2023-07-16T09:52:55;18.90;;;8.37;;
6850;SDS011;3464;42.728;23.296;2023-07-16T09:55:22;21.60;;;8.67;;
6850;SDS011;3464;42.728;23.296;2023-07-16T09:57:49;22.83;;;8.07;;
6850;SDS011;3464;42.728;23.296;2023-07-16T10:00:15;21.43;;;8.10;;
6850;SDS011;3464;42.728;23.296;2023-07-16T10:02:42;26.10;;;9.13;;
6850;SDS011;3464;42.728;23.296;2023-07-16T10:05:11;18.50;;;8.70;;
6850;SDS011;3464;42.728;23.296;2023-07-16T10:07:40;20.57;;;8.33;;
6850;SDS011;3464;42.728;23.296;2023-07-16T10:10:08;19.83;;;9.10;;
6850;SDS011;3464;42.728;23.296;2023-07-16T10:12:37;20.70;;;8.93;;
6850;SDS011;3464;42.728;23.296;2023-07-16T10:15:04;18.47;;;8.23;;
6850;SDS011;3464;42.728;23.296;2023-07-16T10:17:31;17.10;;;8.43;;
6850;SDS011;3464;42.728;23.296;2023-07-16T10:20:00;22.63;;;8.63;;
6850;SDS011;3464;42.728;23.296;2023-07-16T10:22:38;16.00;;;8.70;;
6850;SDS011;3464;42.728;23.296;2023-07-16T10:25:26;24.67;;;9.07;;
6850;SDS011;3464;42.728;23.296;2023-07-16T10:27:53;21.37;;;9.60;;
6850;SDS011;3464;42.728;23.296;2023-07-16T10:30:19;18.93;;;8.60;;
6850;SDS011;3464;42.728;23.296;2023-07-16T10:32:45;22.60;;;9.80;;
6850;SDS011;3464;42.728;23.296;2023-07-16T10:35:12;16.00;;;9.13;;
6850;SDS011;3464;42.728;23.296;2023-07-16T10:37:40;17.30;;;8.90;;
6850;SDS011;3464;42.728;23.296;2023-07-16T10:40:10;18.40;;;9.20;;
6850;SDS011;3464;42.728;23.296;2023-07-16T10:42:37;21.73;;;9.80;;
6850;SDS011;3464;42.728;23.296;2023-07-16T10:45:05;23.07;;;9.47;;
6850;SDS011;3464;42.728;23.296;2023-07-16T10:47:33;18.27;;;9.60;;
6850;SDS011;3464;42.728;23.296;2023-07-16T10:49:59;19.40;;;9.70;;
6850;SDS011;3464;42.728;23.296;2023-07-16T10:52:26;19.40;;;10.17;;
6850;SDS011;3464;42.728;23.296;2023-07-16T10:54:52;19.90;;;9.83;;
6850;SDS011;3464;42.728;23.296;2023-07-16T10:57:20;21.80;;;9.90;;
6850;SDS011;3464;42.728;23.296;2023-07-16T10:59:46;20.30;;;9.80;;
6850;SDS011;3464;42.728;23.296;2023-07-16T11:02:13;23.20;;;10.03;;
6850;SDS011;3464;42.728;23.296;2023-07-16T11:04:39;17.53;;;9.00;;
6850;SDS011;3464;42.728;23.296;2023-07-16T11:07:07;22.23;;;9.80;;
6850;SDS011;3464;42.728;23.296;2023-07-16T11:09:33;22.47;;;9.63;;
6850;SDS011;3464;42.728;23.296;2023-07-16T11:12:05;20.23;;;9.60;;
6850;SDS011;3464;42.728;23.296;2023-07-16T11:14:32;22.67;;;9.43;;
6850;SDS011;3464;42.728;23.296;2023-07-16T11:17:06;20.70;;;9.40;;
6850;SDS011;3464;42.728;23.296;2023-07-16T11:19:36;21.70;;;9.90;;
6850;SDS011;3464;42.728;23.296;2023-07-16T11:22:02;20.97;;;9.17;;
6850;SDS011;3464;42.728;23.296;2023-07-16T11:27:02;28.03;;;9.93;;
6850;SDS011;3464;42.728;23.296;2023-07-16T11:29:34;23.40;;;9.93;;
6850;SDS011;3464;42.728;23.296;2023-07-16T11:32:00;23.60;;;10.30;;
6850;SDS011;3464;42.728;23.296;2023-07-16T11:34:27;23.23;;;10.80;;
6850;SDS011;3464;42.728;23.296;2023-07-16T11:36:53;19.67;;;9.70;;
6850;SDS011;3464;42.728;23.296;2023-07-16T11:39:20;22.07;;;11.37;;
6850;SDS011;3464;42.728;23.296;2023-07-16T11:44:20;21.33;;;9.63;;
6850;SDS011;3464;42.728;23.296;2023-07-16T11:46:46;17.70;;;9.07;;
6850;SDS011;3464;42.728;23.296;2023-07-16T11:49:13;20.50;;;10.00;;
6850;SDS011;3464;42.728;23.296;2023-07-16T11:56:25;19.23;;;9.40;;
6850;SDS011;3464;42.728;23.296;2023-07-16T11:58:52;28.47;;;9.67;;
6850;SDS011;3464;42.728;23.296;2023-07-16T12:01:19;19.80;;;9.53;;
6850;SDS011;3464;42.728;23.296;2023-07-16T12:03:46;21.33;;;9.70;;
6850;SDS011;3464;42.728;23.296;2023-07-16T12:06:12;18.83;;;9.50;;
6850;SDS011;3464;42.728;23.296;2023-07-16T12:08:39;24.20;;;8.77;;
6850;SDS011;3464;42.728;23.296;2023-07-16T12:11:05;20.97;;;9.23;;
6850;SDS011;3464;42.728;23.296;2023-07-16T12:13:32;21.93;;;9.20;;
6850;SDS011;3464;42.728;23.296;2023-07-16T12:15:58;20.17;;;9.67;;
6850;SDS011;3464;42.728;23.296;2023-07-16T12:18:25;21.13;;;8.80;;
6850;SDS011;3464;42.728;23.296;2023-07-16T12:20:52;21.13;;;9.90;;
6850;SDS011;3464;42.728;23.296;2023-07-16T12:23:18;20.93;;;9.27;;
6850;SDS011;3464;42.728;23.296;2023-07-16T12:25:45;16.73;;;8.80;;
6850;SDS011;3464;42.728;23.296;2023-07-16T12:28:11;27.27;;;9.97;;
6850;SDS011;3464;42.728;23.296;2023-07-16T12:30:38;19.10;;;8.70;;
6850;SDS011;3464;42.728;23.296;2023-07-16T12:33:04;16.10;;;8.30;;
6850;SDS011;3464;42.728;23.296;2023-07-16T12:35:31;16.37;;;8.30;;
6850;SDS011;3464;42.728;23.296;2023-07-16T12:37:58;17.50;;;8.27;;
6850;SDS011;3464;42.728;23.296;2023-07-16T12:40:25;16.57;;;7.80;;
6850;SDS011;3464;42.728;23.296;2023-07-16T12:42:51;23.30;;;8.20;;
6850;SDS011;3464;42.728;23.296;2023-07-16T12:45:17;17.00;;;8.30;;
6850;SDS011;3464;42.728;23.296;2023-07-16T12:47:45;21.50;;;8.07;;
6850;SDS011;3464;42.728;23.296;2023-07-16T12:50:12;16.50;;;8.07;;
6850;SDS011;3464;42.728;23.296;2023-07-16T12:52:39;15.73;;;7.57;;
6850;SDS011;3464;42.728;23.296;2023-07-16T12:55:05;16.10;;;6.80;;
6850;SDS011;3464;42.728;23.296;2023-07-16T12:57:32;18.80;;;8.57;;
6850;SDS011;3464;42.728;23.296;2023-07-16T12:59:58;17.27;;;7.83;;
6850;SDS011;3464;42.728;23.296;2023-07-16T13:02:25;14.33;;;7.17;;
6850;SDS011;3464;42.728;23.296;2023-07-16T13:04:51;24.57;;;8.40;;
6850;SDS011;3464;42.728;23.296;2023-07-16T13:07:18;18.80;;;7.97;;
6850;SDS011;3464;42.728;23.296;2023-07-16T13:09:45;18.47;;;7.40;;
6850;SDS011;3464;42.728;23.296;2023-07-16T13:12:12;17.90;;;7.80;;
6850;SDS011;3464;42.728;23.296;2023-07-16T13:14:39;18.47;;;8.37;;
6850;SDS011;3464;42.728;23.296;2023-07-16T13:17:05;16.07;;;7.13;;
6850;SDS011;3464;42.728;23.296;2023-07-16T13:19:33;16.70;;;7.20;;
6850;SDS011;3464;42.728;23.296;2023-07-16T13:22:00;27.50;;;7.70;;
6850;SDS011;3464;42.728;23.296;2023-07-16T13:24:26;17.20;;;7.63;;
6850;SDS011;3464;42.728;23.296;2023-07-16T13:26:53;17.73;;;7.37;;
6850;SDS011;3464;42.728;23.296;2023-07-16T13:29:20;14.93;;;7.47;;
6850;SDS011;3464;42.728;23.296;2023-07-16T13:31:46;17.60;;;7.10;;
6850;SDS011;3464;42.728;23.296;2023-07-16T13:34:13;15.23;;;7.43;;
6850;SDS011;3464;42.728;23.296;2023-07-16T13:36:40;17.87;;;8.10;;
6850;SDS011;3464;42.728;23.296;2023-07-16T13:39:06;16.20;;;7.87;;
6850;SDS011;3464;42.728;23.296;2023-07-16T13:41:33;16.30;;;7.10;;
6850;SDS011;3464;42.728;23.296;2023-07-16T13:44:00;18.33;;;8.50;;
6850;SDS011;3464;42.728;23.296;2023-07-16T13:46:27;16.20;;;8.07;;
6850;SDS011;3464;42.728;23.296;2023-07-16T13:48:54;17.00;;;8.17;;
6850;SDS011;3464;42.728;23.296;2023-07-16T13:51:21;17.70;;;7.43;;
6850;SDS011;3464;42.728;23.296;2023-07-16T13:53:47;15.80;;;7.17;;
6850;SDS011;3464;42.728;23.296;2023-07-16T13:56:14;17.10;;;7.50;;
6850;SDS011;3464;42.728;23.296;2023-07-16T13:58:42;17.17;;;7.33;;
6850;SDS011;3464;42.728;23.296;2023-07-16T14:01:08;16.40;;;7.80;;
6850;SDS011;3464;42.728;23.296;2023-07-16T14:03:35;16.50;;;7.40;;
6850;SDS011;3464;42.728;23.296;2023-07-16T14:06:01;16.43;;;7.73;;
6850;SDS011;3464;42.728;23.296;2023-07-16T14:08:28;15.97;;;7.97;;
6850;SDS011;3464;42.728;23.296;2023-07-16T14:10:55;18.70;;;8.20;;
6850;SDS011;3464;42.728;23.296;2023-07-16T14:13:23;18.93;;;8.33;;
6850;SDS011;3464;42.728;23.296;2023-07-16T14:15:50;18.37;;;8.43;;
6850;SDS011;3464;42.728;23.296;2023-07-16T14:18:17;15.87;;;7.60;;
6850;SDS011;3464;42.728;23.296;2023-07-16T14:20:43;17.63;;;8.60;;
6850;SDS011;3464;42.728;23.296;2023-07-16T14:23:10;18.30;;;7.90;;
6850;SDS011;3464;42.728;23.296;2023-07-16T14:25:36;16.43;;;8.27;;
6850;SDS011;3464;42.728;23.296;2023-07-16T14:28:03;16.90;;;8.20;;
6850;SDS011;3464;42.728;23.296;2023-07-16T14:30:29;16.30;;;7.60;;
6850;SDS011;3464;42.728;23.296;2023-07-16T14:32:56;16.77;;;8.27;;
6850;SDS011;3464;42.728;23.296;2023-07-16T14:35:22;17.57;;;8.30;;
6850;SDS011;3464;42.728;23.296;2023-07-16T14:37:49;22.37;;;8.77;;
6850;SDS011;3464;42.728;23.296;2023-07-16T14:40:15;22.40;;;8.60;;
6850;SDS011;3464;42.728;23.296;2023-07-16T14:42:42;19.10;;;8.40;;
6850;SDS011;3464;42.728;23.296;2023-07-16T14:45:09;17.27;;;7.33;;
6850;SDS011;3464;42.728;23.296;2023-07-16T14:47:35;18.00;;;8.30;;
6850;SDS011;3464;42.728;23.296;2023-07-16T14:50:02;18.00;;;8.17;;
6850;SDS011;3464;42.728;23.296;2023-07-16T14:52:29;16.60;;;8.00;;
6850;SDS011;3464;42.728;23.296;2023-07-16T14:54:56;21.30;;;8.03;;
6850;SDS011;3464;42.728;23.296;2023-07-16T14:57:23;19.90;;;9.60;;